createdAt,value
2023-03-10T00:01:19.639Z,99211.75
2023-03-10T00:03:47.137Z,99209.00
2023-03-10T00:06:17.789Z,99208.56
2023-03-10T00:08:47.029Z,99211.34
2023-03-10T00:11:14.076Z,99204.19
2023-03-10T00:13:41.163Z,99197.69
2023-03-10T00:16:08.756Z,99201.97
2023-03-10T00:18:35.592Z,99202.47
2023-03-10T00:21:02.175Z,99195.34
2023-03-10T00:23:28.727Z,99207.75
2023-03-10T00:25:56.880Z,99200.97
2023-03-10T00:28:23.850Z,99206.19
2023-03-10T00:31:06.076Z,99205.34
2023-03-10T00:33:34.344Z,99206.13
2023-03-10T00:36:11.227Z,99199.72
2023-03-10T00:38:39.447Z,99194.13
2023-03-10T00:41:15.565Z,99196.78
2023-03-10T00:43:42.640Z,99190.16
2023-03-10T00:46:09.775Z,99184.47
2023-03-10T00:48:37.132Z,99182.03
2023-03-10T00:51:04.615Z,99187.13
2023-03-10T00:53:31.675Z,99181.69
2023-03-10T00:55:58.156Z,99175.50
2023-03-10T00:58:24.931Z,99170.34
2023-03-10T01:00:51.543Z,99171.75
2023-03-10T01:03:19.104Z,99167.75
2023-03-10T01:05:45.868Z,99158.81
2023-03-10T01:08:12.463Z,99163.38
2023-03-10T01:10:39.023Z,99169.28
2023-03-10T01:13:05.616Z,99173.38
2023-03-10T01:15:32.196Z,99163.22
2023-03-10T01:18:02.200Z,99163.94
2023-03-10T01:20:28.921Z,99163.34
2023-03-10T01:22:55.520Z,99149.97
2023-03-10T01:25:23.365Z,99154.81
2023-03-10T01:27:49.946Z,99147.69
2023-03-10T01:30:16.705Z,99151.69
2023-03-10T01:32:43.274Z,99147.34
2023-03-10T01:35:10.528Z,99142.00
2023-03-10T01:37:37.229Z,99140.66
2023-03-10T01:40:05.450Z,99136.81
2023-03-10T01:42:32.413Z,99138.00
2023-03-10T01:45:08.246Z,99139.94
2023-03-10T01:47:34.993Z,99132.94
2023-03-10T01:50:03.938Z,99129.91
2023-03-10T01:52:33.519Z,99122.16
2023-03-10T01:55:11.622Z,99124.00
2023-03-10T01:57:44.082Z,99116.84
2023-03-10T02:00:12.332Z,99114.66
2023-03-10T02:02:56.782Z,99108.59
2023-03-10T02:05:24.630Z,99115.59
2023-03-10T02:07:52.093Z,99098.19
2023-03-10T02:10:18.729Z,99098.84
2023-03-10T02:12:45.525Z,99100.91
2023-03-10T02:15:13.111Z,99101.72
2023-03-10T02:17:40.720Z,99107.59
2023-03-10T02:20:16.593Z,99096.94
2023-03-10T02:22:43.270Z,99093.75
2023-03-10T02:25:21.342Z,99083.88
2023-03-10T02:27:48.195Z,99086.66
2023-03-10T02:30:41.530Z,99089.31
2023-03-10T02:33:13.593Z,99090.25
2023-03-10T02:44:49.387Z,99072.78
2023-03-10T02:47:16.418Z,99079.94
2023-03-10T02:49:44.024Z,99077.50
2023-03-10T02:52:26.849Z,99082.06
2023-03-10T02:54:53.544Z,99076.00
2023-03-10T02:57:20.185Z,99070.28
2023-03-10T02:59:46.775Z,99069.03
2023-03-10T03:02:13.348Z,99066.69
2023-03-10T03:04:39.909Z,99070.94
2023-03-10T03:07:06.500Z,99055.88
2023-03-10T03:09:33.180Z,99060.97
2023-03-10T03:12:01.104Z,99048.44
2023-03-10T03:14:27.699Z,99045.16
2023-03-10T03:16:54.352Z,99047.06
2023-03-10T03:19:20.913Z,99037.78
2023-03-10T03:21:50.064Z,99037.97
2023-03-10T03:24:18.261Z,99028.78
2023-03-10T03:26:44.918Z,99029.13
2023-03-10T03:29:12.096Z,99023.75
2023-03-10T03:31:39.299Z,99016.78
2023-03-10T03:34:06.563Z,99014.13
2023-03-10T03:36:33.569Z,99015.09
2023-03-10T03:39:00.204Z,99017.84
2023-03-10T03:41:26.943Z,99008.06
2023-03-10T03:43:53.565Z,99003.84
2023-03-10T03:46:20.190Z,99000.34
2023-03-10T03:48:46.752Z,98991.16
2023-03-10T03:51:13.304Z,98991.25
2023-03-10T03:53:39.921Z,98989.44
2023-03-10T03:56:06.807Z,98991.88
2023-03-10T03:58:33.492Z,98977.03
2023-03-10T04:01:00.113Z,98974.84
2023-03-10T04:03:26.847Z,98968.41
2023-03-10T04:05:53.475Z,98967.88
2023-03-10T04:08:20.127Z,98963.03
2023-03-10T04:10:54.462Z,98963.56
2023-03-10T04:13:21.589Z,98962.22
2023-03-10T04:15:48.238Z,98953.53
2023-03-10T04:18:14.853Z,98953.66
2023-03-10T04:20:41.446Z,98958.63
2023-03-10T04:23:08.018Z,98957.81
2023-03-10T04:25:34.598Z,98944.66
2023-03-10T04:28:01.199Z,98941.78
2023-03-10T04:30:29.746Z,98941.59
2023-03-10T04:33:00.754Z,98950.06
2023-03-10T04:35:28.144Z,98956.06
2023-03-10T04:37:55.454Z,98951.63
2023-03-10T04:40:22.256Z,98937.88
2023-03-10T04:42:48.876Z,98934.38
2023-03-10T04:45:15.468Z,98938.06
2023-03-10T04:47:42.350Z,98940.72
2023-03-10T04:50:10.774Z,98940.53
2023-03-10T04:52:37.360Z,98938.81
2023-03-10T04:55:04.399Z,98931.50
2023-03-10T04:57:30.996Z,98931.09
2023-03-10T04:59:57.641Z,98931.31
2023-03-10T05:02:24.254Z,98931.50
2023-03-10T05:04:50.894Z,98935.75
2023-03-10T05:07:17.558Z,98929.03
2023-03-10T05:09:44.165Z,98920.03
2023-03-10T05:12:11.425Z,98912.19
2023-03-10T05:14:38.216Z,98908.69
2023-03-10T05:17:04.990Z,98906.25
2023-03-10T05:19:34.696Z,98897.28
2023-03-10T05:22:02.227Z,98907.78
2023-03-10T05:24:28.800Z,98906.59
2023-03-10T05:26:55.361Z,98899.28
2023-03-10T05:29:22.055Z,98897.97
2023-03-10T05:31:48.730Z,98893.69
2023-03-10T05:34:16.017Z,98890.59
2023-03-10T05:36:43.397Z,98891.22
2023-03-10T05:39:11.130Z,98888.47
2023-03-10T05:41:38.644Z,98892.94
2023-03-10T05:44:05.460Z,98884.09
2023-03-10T05:46:32.112Z,98877.28
2023-03-10T05:48:58.870Z,98878.25
2023-03-10T05:51:25.505Z,98877.78
2023-03-10T05:53:52.037Z,98871.41
2023-03-10T05:56:19.882Z,98861.16
2023-03-10T05:58:47.201Z,98865.63
2023-03-10T06:01:14.546Z,98862.41
2023-03-10T06:03:41.387Z,98856.50
2023-03-10T06:06:08.308Z,98854.06
2023-03-10T06:08:35.377Z,98844.69
2023-03-10T06:11:02.019Z,98849.25
2023-03-10T06:13:28.966Z,98853.59
2023-03-10T06:15:58.190Z,98856.13
2023-03-10T06:18:25.390Z,98848.84
2023-03-10T06:20:53.682Z,98855.47
2023-03-10T06:23:21.846Z,98857.72
2023-03-10T06:26:08.520Z,98856.31
2023-03-10T06:28:37.791Z,98856.16
2023-03-10T06:31:08.274Z,98841.94
2023-03-10T06:33:35.558Z,98836.56
2023-03-10T06:36:02.546Z,98836.38
2023-03-10T06:38:30.483Z,98837.13
2023-03-10T06:40:58.000Z,98834.28
2023-03-10T06:43:24.855Z,98833.22
2023-03-10T06:45:51.517Z,98836.53
2023-03-10T06:48:18.263Z,98829.84
2023-03-10T06:50:48.010Z,98838.28
2023-03-10T06:53:17.055Z,98834.72
2023-03-10T06:55:43.643Z,98831.09
2023-03-10T06:58:10.272Z,98820.16
2023-03-10T07:00:39.043Z,98818.75
2023-03-10T07:03:05.976Z,98816.06
2023-03-10T07:05:32.517Z,98825.00
2023-03-10T07:07:59.095Z,98820.47
2023-03-10T07:10:33.189Z,98812.00
2023-03-10T07:12:59.763Z,98815.75
2023-03-10T07:15:26.988Z,98812.28
2023-03-10T07:17:56.206Z,98817.16
2023-03-10T07:20:24.358Z,98820.81
2023-03-10T07:22:51.939Z,98815.81
2023-03-10T07:25:18.764Z,98814.81
2023-03-10T07:27:45.417Z,98807.63
2023-03-10T07:30:12.674Z,98803.41
2023-03-10T07:32:39.364Z,98817.06
2023-03-10T07:35:06.568Z,98805.09
2023-03-10T07:37:33.163Z,98811.72
2023-03-10T07:39:59.738Z,98810.31
2023-03-10T07:42:26.299Z,98809.56
2023-03-10T07:44:52.999Z,98810.78
2023-03-10T07:47:19.606Z,98806.00
2023-03-10T07:49:47.033Z,98809.09
2023-03-10T07:52:18.284Z,98795.25
2023-03-10T07:54:45.396Z,98795.28
2023-03-10T07:57:13.465Z,98785.38
2023-03-10T07:59:40.652Z,98777.63
2023-03-10T08:02:07.997Z,98776.25
2023-03-10T08:04:34.836Z,98775.00
2023-03-10T08:07:03.270Z,98770.59
2023-03-10T08:09:30.475Z,98776.44
2023-03-10T08:12:01.081Z,98774.34
2023-03-10T08:14:29.324Z,98770.25
2023-03-10T08:16:58.754Z,98751.38
2023-03-10T08:19:26.556Z,98745.34
2023-03-10T08:21:57.633Z,98748.56
2023-03-10T08:24:25.101Z,98736.63
2023-03-10T08:26:51.729Z,98737.97
2023-03-10T08:29:18.377Z,98736.97
2023-03-10T08:31:45.143Z,98734.03
2023-03-10T08:34:12.444Z,98731.78
2023-03-10T08:36:39.434Z,98727.50
2023-03-10T08:39:07.449Z,98729.63
2023-03-10T08:41:42.666Z,98717.91
2023-03-10T08:44:11.844Z,98722.78
2023-03-10T08:46:38.609Z,98707.78
2023-03-10T08:49:05.245Z,98717.28
2023-03-10T08:51:31.828Z,98704.78
2023-03-10T08:53:58.783Z,98709.06
2023-03-10T08:56:25.377Z,98708.28
2023-03-10T08:58:59.078Z,98703.59
2023-03-10T09:01:27.672Z,98698.16
2023-03-10T09:03:54.318Z,98699.34
2023-03-10T09:06:20.915Z,98699.94
2023-03-10T09:08:50.663Z,98710.41
2023-03-10T09:11:22.167Z,98706.28
2023-03-10T09:13:49.353Z,98708.75
2023-03-10T09:16:16.527Z,98699.84
2023-03-10T09:18:43.580Z,98693.41
2023-03-10T09:21:13.364Z,98708.19
2023-03-10T09:23:42.858Z,98691.75
2023-03-10T09:26:09.471Z,98680.75
2023-03-10T09:28:36.462Z,98682.28
2023-03-10T09:31:07.912Z,98673.31
2023-03-10T09:33:34.713Z,98666.09
2023-03-10T09:36:07.445Z,98661.59
2023-03-10T09:38:36.048Z,98657.69
2023-03-10T09:41:28.225Z,98645.44
2023-03-10T09:44:18.686Z,98643.66
2023-03-10T09:47:02.529Z,98634.72
2023-03-10T09:49:33.781Z,98635.78
2023-03-10T09:52:07.127Z,98632.06
2023-03-10T09:54:47.421Z,98638.06
2023-03-10T09:57:18.991Z,98642.44
2023-03-10T09:59:49.027Z,98628.91
2023-03-10T10:02:33.028Z,98631.56
2023-03-10T10:05:04.312Z,98614.03
2023-03-10T10:07:45.347Z,98610.41
2023-03-10T10:10:19.141Z,98608.88
2023-03-10T10:12:50.272Z,98603.28
2023-03-10T10:15:21.948Z,98593.72
2023-03-10T10:18:16.092Z,98588.56
2023-03-10T10:21:01.982Z,98569.94
2023-03-10T10:23:38.910Z,98566.13
2023-03-10T10:26:11.876Z,98557.22
2023-03-10T10:28:43.125Z,98557.63
2023-03-10T10:31:17.051Z,98551.19
2023-03-10T10:34:03.947Z,98552.94
2023-03-10T10:36:41.471Z,98553.19
2023-03-10T10:39:33.090Z,98557.56
2023-03-10T10:42:26.227Z,98547.16
2023-03-10T10:45:02.452Z,98552.94
2023-03-10T10:47:30.955Z,98535.06
2023-03-10T10:50:22.862Z,98538.22
2023-03-10T10:52:53.233Z,98539.69
2023-03-10T10:55:27.773Z,98541.81
2023-03-10T10:58:01.767Z,98536.34
2023-03-10T11:00:38.568Z,98531.41
2023-03-10T11:03:34.392Z,98524.94
2023-03-10T11:06:12.169Z,98512.44
2023-03-10T11:08:40.697Z,98513.13
2023-03-10T11:11:18.750Z,98495.88
2023-03-10T11:13:51.406Z,98494.34
2023-03-10T11:16:31.938Z,98479.56
2023-03-10T11:19:32.230Z,98478.34
2023-03-10T11:22:07.481Z,98476.47
2023-03-10T11:25:00.697Z,98465.19
2023-03-10T11:27:43.930Z,98463.13
2023-03-10T11:30:29.775Z,98468.53
2023-03-10T11:33:05.518Z,98454.94
2023-03-10T11:35:37.930Z,98452.25
2023-03-10T11:38:19.524Z,98456.84
2023-03-10T11:40:58.339Z,98442.09
2023-03-10T11:43:37.063Z,98437.47
2023-03-10T11:46:36.659Z,98423.75
2023-03-10T11:49:06.056Z,98414.34
2023-03-10T11:51:41.933Z,98418.59
2023-03-10T11:54:14.120Z,98417.84
2023-03-10T11:56:41.669Z,98405.94
2023-03-10T11:59:20.572Z,98397.78
2023-03-10T12:01:53.145Z,98390.09
2023-03-10T12:04:44.482Z,98382.16
2023-03-10T12:07:31.822Z,98384.38
2023-03-10T12:10:00.916Z,98385.63
2023-03-10T12:12:32.420Z,98376.53
2023-03-10T12:15:11.278Z,98368.41
2023-03-10T12:17:39.805Z,98364.38
2023-03-10T12:20:12.165Z,98365.16
2023-03-10T12:22:56.170Z,98360.72
2023-03-10T12:25:28.562Z,98351.69
2023-03-10T12:28:17.113Z,98345.00
2023-03-10T12:30:43.799Z,98333.66
2023-03-10T12:33:46.485Z,98328.84
2023-03-10T12:36:37.280Z,98317.03
2023-03-10T12:39:31.664Z,98308.91
2023-03-10T12:42:02.524Z,98330.84
2023-03-10T12:45:02.196Z,98308.09
2023-03-10T12:47:43.059Z,98295.75
2023-03-10T12:50:22.779Z,98312.97
2023-03-10T12:52:59.451Z,98284.91
2023-03-10T12:55:27.990Z,98281.56
2023-03-10T12:58:02.628Z,98286.38
2023-03-10T13:00:47.526Z,98273.50
2023-03-10T13:03:18.339Z,98276.97
2023-03-10T13:06:03.672Z,98279.44
2023-03-10T13:08:39.441Z,98265.91
2023-03-10T13:11:16.465Z,98270.31
2023-03-10T13:13:43.866Z,98271.88
2023-03-10T13:16:18.687Z,98256.69
2023-03-10T13:18:53.168Z,98266.19
2023-03-10T13:21:39.470Z,98253.41
2023-03-10T13:24:26.660Z,98253.28
2023-03-10T13:27:18.910Z,98256.69
2023-03-10T13:30:05.847Z,98255.44
2023-03-10T13:32:33.427Z,98259.78
2023-03-10T13:35:20.484Z,98253.72
2023-03-10T13:38:08.964Z,98248.34
2023-03-10T13:40:37.794Z,98241.47
2023-03-10T13:43:06.971Z,98225.47
2023-03-10T13:45:36.250Z,98236.69
2023-03-10T13:48:06.438Z,98240.47
2023-03-10T13:50:33.223Z,98242.63
2023-03-10T13:53:00.285Z,98234.22
2023-03-10T13:55:28.671Z,98241.19
2023-03-10T13:57:56.096Z,98235.13
2023-03-10T14:00:25.977Z,98229.09
2023-03-10T14:02:53.721Z,98232.25
2023-03-10T14:05:49.308Z,98238.34
2023-03-10T14:08:28.876Z,98226.41
2023-03-10T14:11:24.248Z,98229.00
2023-03-10T14:13:51.790Z,98225.88
2023-03-10T14:16:18.433Z,98222.78
2023-03-10T14:18:45.197Z,98205.38
2023-03-10T14:21:33.279Z,98222.41
2023-03-10T14:24:10.518Z,98218.22
2023-03-10T14:26:38.925Z,98221.00
2023-03-10T14:29:17.485Z,98216.97
2023-03-10T14:31:49.680Z,98214.84
2023-03-10T14:34:16.253Z,98210.59
2023-03-10T14:36:42.850Z,98204.91
2023-03-10T14:39:09.620Z,98206.78
2023-03-10T14:41:36.441Z,98203.25
2023-03-10T14:44:03.485Z,98206.09
2023-03-10T14:46:32.846Z,98201.63
2023-03-10T14:48:59.607Z,98197.59
2023-03-10T14:51:35.400Z,98191.16
2023-03-10T14:54:03.172Z,98177.75
2023-03-10T14:56:30.296Z,98183.19
2023-03-10T14:59:01.996Z,98178.22
2023-03-10T15:01:29.389Z,98180.22
2023-03-10T15:03:56.130Z,98185.50
2023-03-10T15:06:22.844Z,98172.09
2023-03-10T15:08:49.394Z,98168.88
2023-03-10T15:11:24.090Z,98170.81
2023-03-10T15:13:58.265Z,98166.56
2023-03-10T15:16:25.108Z,98177.06
2023-03-10T15:18:53.933Z,98175.94
2023-03-10T15:21:20.487Z,98170.66
2023-03-10T15:23:47.055Z,98189.25
2023-03-10T15:26:13.895Z,98164.69
2023-03-10T15:28:40.498Z,98166.44
2023-03-10T15:31:07.181Z,98176.13
2023-03-10T15:33:33.842Z,98181.38
2023-03-10T15:36:00.506Z,98181.44
2023-03-10T15:38:27.168Z,98177.75
2023-03-10T15:40:53.788Z,98171.72
2023-03-10T15:43:20.358Z,98184.25
2023-03-10T15:45:49.164Z,98174.94
2023-03-10T15:48:16.389Z,98175.81
2023-03-10T15:50:44.818Z,98195.41
2023-03-10T15:53:11.348Z,98168.63
2023-03-10T15:55:41.415Z,98185.97
2023-03-10T15:58:09.566Z,98172.22
2023-03-10T16:00:36.221Z,98174.75
2023-03-10T16:03:02.869Z,98170.63
2023-03-10T16:05:29.520Z,98171.47
2023-03-10T16:07:56.146Z,98163.81
2023-03-10T16:10:22.704Z,98159.66
2023-03-10T16:12:49.262Z,98155.28
2023-03-10T16:15:18.199Z,98161.78
2023-03-10T16:17:45.078Z,98157.66
2023-03-10T16:20:16.960Z,98155.63
2023-03-10T16:22:43.622Z,98166.91
2023-03-10T16:25:18.493Z,98155.69
2023-03-10T16:27:46.358Z,98159.47
2023-03-10T16:30:17.240Z,98160.53
2023-03-10T16:32:45.842Z,98168.25
2023-03-10T16:35:12.776Z,98167.25
2023-03-10T16:37:39.375Z,98168.72
2023-03-10T16:40:07.641Z,98166.03
2023-03-10T16:42:38.667Z,98175.19
2023-03-10T16:45:06.781Z,98177.91
2023-03-10T16:47:33.757Z,98168.13
2023-03-10T16:50:00.437Z,98170.25
2023-03-10T16:52:27.064Z,98179.81
2023-03-10T16:54:58.346Z,98185.63
2023-03-10T16:57:25.032Z,98179.81
2023-03-10T16:59:53.160Z,98183.16
2023-03-10T17:02:19.725Z,98198.75
2023-03-10T17:04:46.343Z,98203.53
2023-03-10T17:07:14.191Z,98206.22
2023-03-10T17:09:40.769Z,98201.28
2023-03-10T17:12:07.521Z,98211.03
2023-03-10T17:14:34.159Z,98213.94
2023-03-10T17:17:01.458Z,98211.22
2023-03-10T17:19:30.891Z,98204.16
2023-03-10T17:21:58.722Z,98211.84
2023-03-10T17:24:25.968Z,98216.63
2023-03-10T17:26:52.648Z,98213.13
2023-03-10T17:29:19.255Z,98207.91
2023-03-10T17:31:50.274Z,98202.69
2023-03-10T17:34:18.270Z,98200.25
2023-03-10T17:36:45.087Z,98207.50
2023-03-10T17:39:17.403Z,98201.06
2023-03-10T17:41:43.966Z,98199.63
2023-03-10T17:44:11.261Z,98198.78
2023-03-10T17:46:40.881Z,98192.31
2023-03-10T17:49:07.639Z,98186.72
2023-03-10T17:51:34.335Z,98188.38
2023-03-10T17:54:01.742Z,98188.38
2023-03-10T17:56:29.128Z,98192.13
2023-03-10T17:58:57.091Z,98187.97
2023-03-10T18:01:29.176Z,98196.91
2023-03-10T18:03:57.799Z,98184.44
2023-03-10T18:06:30.175Z,98187.56
2023-03-10T18:08:58.376Z,98185.91
2023-03-10T18:11:26.423Z,98189.00
2023-03-10T18:13:53.412Z,98189.44
2023-03-10T18:16:21.960Z,98189.63
2023-03-10T18:18:48.987Z,98178.22
2023-03-10T18:21:16.897Z,98190.66
2023-03-10T18:23:43.898Z,98211.00
2023-03-10T18:26:20.051Z,98227.41
2023-03-10T18:28:47.034Z,98227.03
2023-03-10T18:31:26.656Z,98233.22
2023-03-10T18:33:53.362Z,98229.06
2023-03-10T18:36:20.777Z,98233.84
2023-03-10T18:38:48.000Z,98227.84
2023-03-10T18:41:17.511Z,98225.75
2023-03-10T18:43:44.089Z,98229.06
2023-03-10T18:46:11.026Z,98220.34
2023-03-10T18:48:37.713Z,98221.59
2023-03-10T18:51:04.563Z,98222.81
2023-03-10T18:53:31.477Z,98220.50
2023-03-10T18:55:59.651Z,98222.16
2023-03-10T18:58:26.388Z,98223.19
2023-03-10T19:00:53.097Z,98227.53
2023-03-10T19:03:19.769Z,98227.97
2023-03-10T19:05:46.489Z,98232.91
2023-03-10T19:08:13.124Z,98237.25
2023-03-10T19:10:40.214Z,98237.66
2023-03-10T19:13:08.375Z,98242.59
2023-03-10T19:15:37.645Z,98244.66
2023-03-10T19:18:05.167Z,98250.63
2023-03-10T19:20:31.761Z,98253.47
2023-03-10T19:22:58.354Z,98245.75
2023-03-10T19:25:25.034Z,98237.88
2023-03-10T19:27:51.992Z,98225.22
2023-03-10T19:30:20.773Z,98226.44
2023-03-10T19:32:48.284Z,98215.03
2023-03-10T19:35:15.866Z,98209.03
2023-03-10T19:37:46.121Z,98206.53
2023-03-10T19:40:16.137Z,98210.44
2023-03-10T19:42:43.397Z,98212.06
2023-03-10T19:45:15.731Z,98206.25
2023-03-10T19:47:43.463Z,98213.47
2023-03-10T19:50:12.328Z,98221.06
2023-03-10T19:52:44.578Z,98222.06
2023-03-10T19:55:19.598Z,98224.94
2023-03-10T19:57:48.727Z,98224.69
2023-03-10T20:00:18.852Z,98224.28
2023-03-10T20:02:45.638Z,98225.09
2023-03-10T20:05:14.997Z,98224.91
2023-03-10T20:07:44.214Z,98231.31
2023-03-10T20:10:11.475Z,98239.59
2023-03-10T20:12:38.224Z,98232.69
2023-03-10T20:15:06.061Z,98228.91
2023-03-10T20:17:32.764Z,98229.88
2023-03-10T20:19:59.442Z,98231.50
2023-03-10T20:22:26.105Z,98231.06
2023-03-10T20:24:52.836Z,98230.16
2023-03-10T20:27:19.522Z,98224.97
2023-03-10T20:29:46.081Z,98216.22
2023-03-10T20:32:12.909Z,98211.25
2023-03-10T20:34:41.239Z,98210.81
2023-03-10T20:37:08.108Z,98194.41
2023-03-10T20:39:34.801Z,98183.19
2023-03-10T20:42:01.461Z,98167.59
2023-03-10T20:44:28.283Z,98148.97
2023-03-10T20:46:54.930Z,98129.13
2023-03-10T20:49:21.525Z,98116.47
2023-03-10T20:51:48.169Z,98111.50
2023-03-10T20:54:14.724Z,98113.31
2023-03-10T20:56:41.283Z,98145.59
2023-03-10T20:59:07.830Z,98138.34
2023-03-10T21:01:39.466Z,98170.84
2023-03-10T21:04:06.358Z,98161.56
2023-03-10T21:06:33.170Z,98148.47
2023-03-10T21:09:05.740Z,98147.00
2023-03-10T21:11:33.974Z,98156.47
2023-03-10T21:14:00.692Z,98156.88
2023-03-10T21:16:28.055Z,98163.47
2023-03-10T21:18:54.795Z,98169.44
2023-03-10T21:21:21.924Z,98172.13
2023-03-10T21:23:48.698Z,98173.66
2023-03-10T21:26:20.601Z,98172.00
2023-03-10T21:28:47.798Z,98172.44
2023-03-10T21:31:15.131Z,98174.44
2023-03-10T21:33:41.919Z,98181.19
2023-03-10T21:36:13.962Z,98177.69
2023-03-10T21:38:41.041Z,98184.28
2023-03-10T21:41:08.901Z,98190.88
2023-03-10T21:43:35.698Z,98185.06
2023-03-10T21:46:02.274Z,98187.06
2023-03-10T21:48:28.870Z,98200.50
2023-03-10T21:50:55.488Z,98200.91
2023-03-10T21:53:22.108Z,98184.50
2023-03-10T21:55:48.814Z,98200.53
2023-03-10T21:58:15.331Z,98204.81
2023-03-10T22:00:41.924Z,98201.22
2023-03-10T22:03:08.522Z,98197.25
2023-03-10T22:05:35.099Z,98205.88
2023-03-10T22:08:01.762Z,98208.28
2023-03-10T22:10:28.349Z,98205.41
2023-03-10T22:12:54.994Z,98211.25
2023-03-10T22:15:25.155Z,98208.16
2023-03-10T22:17:55.289Z,98211.03
2023-03-10T22:20:25.179Z,98208.28
2023-03-10T22:22:51.948Z,98199.94
2023-03-10T22:25:19.157Z,98199.47
2023-03-10T22:27:50.356Z,98193.66
2023-03-10T22:30:17.545Z,98187.59
2023-03-10T22:32:44.288Z,98193.38
2023-03-10T22:35:10.999Z,98181.78
2023-03-10T22:37:38.213Z,98181.41
2023-03-10T22:40:06.242Z,98176.03
2023-03-10T22:42:32.780Z,98173.53
2023-03-10T22:45:00.836Z,98177.25
2023-03-10T22:47:27.419Z,98175.59
2023-03-10T22:49:54.553Z,98179.25
2023-03-10T22:52:21.110Z,98181.31
2023-03-10T22:54:47.714Z,98178.81
2023-03-10T22:57:15.386Z,98182.69
2023-03-10T22:59:42.113Z,98197.16
2023-03-10T23:02:08.897Z,98203.38
2023-03-10T23:04:35.609Z,98200.84
2023-03-10T23:07:02.164Z,98206.06
2023-03-10T23:09:28.864Z,98196.34
2023-03-10T23:11:55.402Z,98197.31
2023-03-10T23:14:22.041Z,98187.25
2023-03-10T23:16:48.630Z,98194.91
2023-03-10T23:19:15.222Z,98194.91
2023-03-10T23:21:41.735Z,98196.34
2023-03-10T23:24:08.471Z,98194.38
2023-03-10T23:26:37.313Z,98193.25
2023-03-10T23:29:04.075Z,98206.38
2023-03-10T23:31:30.759Z,98222.16
2023-03-10T23:33:57.413Z,98217.41
2023-03-10T23:36:24.302Z,98211.22
2023-03-10T23:38:50.820Z,98221.13
2023-03-10T23:41:18.440Z,98209.34
2023-03-10T23:43:45.218Z,98224.44
2023-03-10T23:46:11.908Z,98218.78
2023-03-10T23:48:38.562Z,98220.66
2023-03-10T23:51:05.466Z,98229.28
2023-03-10T23:53:32.095Z,98225.63
2023-03-10T23:56:00.131Z,98213.22
2023-03-10T23:58:28.069Z,98216.47
